logo tempoitalia

Diretta Meteo Sterling, Stati Uniti (USA)lunedì 31 agosto ore 00:35

Mappa
Sereno 16 °C Sereno 24 Ore: T.min 13 T.max 33
Ponente Nord Km/h 5.5 Punto di rugiada: 16 °C Umidità: 100% Visibilità: 10 Km
Il sole sorge alle: 06:19 Il sole tramonta alle: 19:27
31 Agosto 2026 00:35 tempo osservato: Sereno Sereno 16 100 1018 vento: Nord N 5.5
31 Agosto 2026 00:15 tempo osservato: Sereno Sereno 16 93 1018 vento: Nord S 7.4
30 Agosto 2026 23:55 tempo osservato: Sereno Sereno 16 100 1018 vento: Nord S 13
30 Agosto 2026 23:35 tempo osservato: Sereno Sereno 16 93 1018 vento: Nord SE 9.3
30 Agosto 2026 23:15 tempo osservato: Sereno Sereno 16 87 1017 vento: Nord S 9.3
30 Agosto 2026 22:55 tempo osservato: Sereno Sereno 17 77 1017 vento: Nord N 0
30 Agosto 2026 22:35 tempo osservato: Sereno Sereno 18 72 1017 vento: Nord N 5.5
30 Agosto 2026 22:15 tempo osservato: Sereno Sereno 18 72 1017 vento: Nord N/NO 9.3
30 Agosto 2026 21:55 tempo osservato: Sereno Sereno 17 82 1017 vento: Nord N 5.5
30 Agosto 2026 21:35 tempo osservato: Sereno Sereno 18 72 1017 vento: Nord S/SO 11.1
30 Agosto 2026 21:15 tempo osservato: Sereno Sereno 17 77 1017 vento: Nord S 11.1
30 Agosto 2026 20:55 tempo osservato: Sereno Sereno 19 63 1017 vento: Nord O 9.3
30 Agosto 2026 20:35 tempo osservato: Sereno Sereno 20 59 1016 vento: Nord S/SO 13
30 Agosto 2026 20:15 tempo osservato: Sereno Sereno 22 53 1016 vento: Nord N 5.5
30 Agosto 2026 19:55 tempo osservato: Sereno Sereno 23 49 1016 vento: Nord SO 16.7
30 Agosto 2026 19:35 tempo osservato: Sereno Sereno 23 49 1016 vento: Nord S/SO 13
30 Agosto 2026 19:15 tempo osservato: Sereno Sereno 24 47 1016 vento: Nord O/SO 20.3
30 Agosto 2026 18:55 tempo osservato: Nuvoloso Nuvoloso 25 44 1016 vento: Nord O/SO 18.5
30 Agosto 2026 18:35 tempo osservato: Pioviggine Pioviggine 26 36 1016 vento: Nord SO 16.7
30 Agosto 2026 18:15 tempo osservato: Sereno Sereno 26 39 1016 vento: Nord O/SO 42.6
30 Agosto 2026 17:55 tempo osservato: Sereno Sereno 26 39 1016 vento: Nord O/SO 37
30 Agosto 2026 17:35 tempo osservato: Sereno Sereno 27 34 1016 vento: Nord O 24
30 Agosto 2026 17:15 tempo osservato: Sereno Sereno 27 34 1016 vento: Nord O 20.3
30 Agosto 2026 16:55 tempo osservato: Sereno Sereno 28 32 1016 vento: Nord O 27.8
30 Agosto 2026 16:35 tempo osservato: Sereno Sereno 28 32 1016 vento: Nord O 33.3
30 Agosto 2026 16:15 tempo osservato: Sereno Sereno 29 30 1015 vento: Nord O 42.6
30 Agosto 2026 15:55 tempo osservato: Sereno Sereno 31 27 1015 vento: Nord O 38.8
30 Agosto 2026 15:35 tempo osservato: Sereno Sereno 33 26 1015 vento: Nord O 35.2
30 Agosto 2026 15:15 tempo osservato: Sereno Sereno 32 29 1015 vento: Nord O 22.2
30 Agosto 2026 14:55 tempo osservato: Sereno Sereno 31 31 1015 vento: Nord O/SO 14.8
30 Agosto 2026 14:35 tempo osservato: Sereno Sereno 32 29 1015 vento: Nord SO 13
30 Agosto 2026 14:15 tempo osservato: Sereno Sereno 31 33 1015 vento: Nord SO 14.8
30 Agosto 2026 13:55 tempo osservato: Sereno Sereno 31 33 1015 vento: Nord SO 14.8
30 Agosto 2026 13:35 tempo osservato: Sereno Sereno 30 35 1015 vento: Nord S/SO 14.8
30 Agosto 2026 13:15 tempo osservato: Sereno Sereno 30 35 1015 vento: Nord S/SO 14.8
30 Agosto 2026 12:55 tempo osservato: Sereno Sereno 30 35 1015 vento: Nord SO 14.8
30 Agosto 2026 12:35 tempo osservato: Sereno Sereno 30 35 1015 vento: Nord S/SO 18.5
30 Agosto 2026 12:15 tempo osservato: Sereno Sereno 30 35 1015 vento: Nord S/SO 13
30 Agosto 2026 11:55 tempo osservato: Sereno Sereno 28 39 1016 vento: Nord SO 14.8
30 Agosto 2026 11:35 tempo osservato: Sereno Sereno 28 48 1016 vento: Nord SO 13
30 Agosto 2026 11:15 tempo osservato: Sereno Sereno 26 57 1016 vento: Nord S 9.3
30 Agosto 2026 10:55 tempo osservato: Sereno Sereno 24 64 1016 vento: Nord S 9.3
30 Agosto 2026 10:35 tempo osservato: Sereno Sereno 23 64 1016 vento: Nord S/SO 7.4
30 Agosto 2026 10:15 tempo osservato: Sereno Sereno 22 68 1016 vento: Nord N 5.5
30 Agosto 2026 09:55 tempo osservato: Sereno Sereno 21 73 1016 vento: Nord N 5.5
30 Agosto 2026 09:35 tempo osservato: Sereno Sereno 21 73 1016 vento: Nord S 9.3
30 Agosto 2026 09:15 tempo osservato: Sereno Sereno 20 77 1016 vento: Nord N 0
30 Agosto 2026 08:55 tempo osservato: Sereno Sereno 18 88 1016 vento: Nord S 9.3
30 Agosto 2026 08:35 tempo osservato: Sereno Sereno 17 93 1016 vento: Nord N 5.5
30 Agosto 2026 08:15 tempo osservato: Sereno Sereno 18 88 1016 vento: Nord S/SE 13
30 Agosto 2026 07:55 tempo osservato: Sereno Sereno 16 100 1016 vento: Nord S 7.4
30 Agosto 2026 07:35 tempo osservato: Sereno Sereno 16 100 1016 vento: Nord S 7.4
30 Agosto 2026 07:15 tempo osservato: Sereno Sereno 15 100 1016 vento: Nord N 0
30 Agosto 2026 06:55 tempo osservato: Sereno Sereno 14 100 1016 vento: Nord N 5.5
30 Agosto 2026 06:35 tempo osservato: Sereno Sereno 13 100 1016 vento: Nord N 5.5
30 Agosto 2026 06:15 tempo osservato: Sereno Sereno 13 100 1016 vento: Nord S 7.4
30 Agosto 2026 05:55 tempo osservato: Sereno Sereno 13 100 1016 vento: Nord S/SE 7.4
30 Agosto 2026 05:35 tempo osservato: Sereno Sereno 13 100 1016 vento: Nord S 9.3
30 Agosto 2026 05:15 tempo osservato: Sereno Sereno 13 100 1016 vento: Nord S/SE 11.1
30 Agosto 2026 04:55 tempo osservato: Sereno Sereno 13 100 1016 vento: Nord S/SE 11.1
30 Agosto 2026 04:35 tempo osservato: Sereno Sereno 13 100 1015 vento: Nord S 9.3
30 Agosto 2026 04:15 tempo osservato: Sereno Sereno 13 100 1016 vento: Nord S 9.3
30 Agosto 2026 03:55 tempo osservato: Sereno Sereno 13 100 1015 vento: Nord S 9.3
30 Agosto 2026 03:35 tempo osservato: Sereno Sereno 13 100 1016 vento: Nord S 9.3
30 Agosto 2026 03:15 tempo osservato: Sereno Sereno 14 100 1015 vento: Nord N 5.5
30 Agosto 2026 02:55 tempo osservato: Sereno Sereno 15 100 1015 vento: Nord N 5.5
30 Agosto 2026 02:35 tempo osservato: Sereno Sereno 15 100 1015 vento: Nord S/SO 11.1
30 Agosto 2026 02:15 tempo osservato: Sereno Sereno 15 100 1015 vento: Nord S/SO 9.3
30 Agosto 2026 01:55 tempo osservato: Sereno Sereno 15 100 1015 vento: Nord S/SO 13
30 Agosto 2026 01:35 tempo osservato: Sereno Sereno 15 100 1015 vento: Nord S 7.4
30 Agosto 2026 01:15 tempo osservato: Sereno Sereno 15 100 1015 vento: Nord S 7.4
30 Agosto 2026 00:55 tempo osservato: Sereno Sereno 15 100 1015 vento: Nord S 7.4
30 Agosto 2026 00:35 tempo osservato: Sereno Sereno 16 100 1015 vento: Nord N 0